createdAt,value
2019-04-29T00:00:07.425Z,48.19
2019-04-29T00:01:06.963Z,48.58
2019-04-29T00:02:07.633Z,48.08
2019-04-29T00:03:07.107Z,48.28
2019-04-29T00:04:06.917Z,48.38
2019-04-29T00:05:06.905Z,48.19
2019-04-29T00:06:07.237Z,48.38
2019-04-29T00:07:06.896Z,48.61
2019-04-29T00:08:06.952Z,48.38
2019-04-29T00:09:07.220Z,48.31
2019-04-29T00:10:06.929Z,48.31
2019-04-29T00:11:07.542Z,48.41
2019-04-29T00:12:07.154Z,48.58
2019-04-29T00:13:07.775Z,48.49
2019-04-29T00:14:06.784Z,48.49
2019-04-29T00:15:07.239Z,48.38
2019-04-29T00:16:07.573Z,48.38
2019-04-29T00:17:06.799Z,48.19
2019-04-29T00:18:06.820Z,48.58
2019-04-29T00:19:06.747Z,48.38
2019-04-29T00:20:06.722Z,48.38
2019-04-29T00:21:07.550Z,48.11
2019-04-29T00:22:07.576Z,48.49
2019-04-29T00:23:06.824Z,48.49
2019-04-29T00:24:06.905Z,48.58
2019-04-29T00:25:06.652Z,48.51
2019-04-29T00:26:06.652Z,48.28
2019-04-29T00:27:07.144Z,48.58
2019-04-29T00:28:07.425Z,48.11
2019-04-29T00:29:06.840Z,48.28
2019-04-29T00:30:07.301Z,48.58
2019-04-29T00:31:06.714Z,48.41
2019-04-29T00:32:07.919Z,48.58
2019-04-29T00:33:06.800Z,48.49
2019-04-29T00:34:07.280Z,48.89
2019-04-29T00:35:06.601Z,48.41
2019-04-29T00:36:06.535Z,48.31
2019-04-29T00:37:06.517Z,48.49
2019-04-29T00:38:06.555Z,48.89
2019-04-29T00:39:06.834Z,48.49
2019-04-29T00:40:06.511Z,48.38
2019-04-29T00:41:06.547Z,48.38
2019-04-29T00:42:06.503Z,48.38
2019-04-29T00:43:06.450Z,48.49
2019-04-29T00:44:06.516Z,48.58
2019-04-29T00:45:07.820Z,48.19
2019-04-29T00:46:06.564Z,48.19
2019-04-29T00:47:06.797Z,48.28
2019-04-29T00:48:06.494Z,48.31
2019-04-29T00:49:06.480Z,48.38
2019-04-29T00:50:07.011Z,48.41
2019-04-29T00:51:06.640Z,48.58
2019-04-29T00:52:06.965Z,48.49
2019-04-29T00:53:06.573Z,48.28
2019-04-29T00:54:07.131Z,48.49
2019-04-29T00:55:06.527Z,48.19
2019-04-29T00:56:06.287Z,48.08
2019-04-29T00:57:06.777Z,48.61
2019-04-29T00:58:07.322Z,48.49
2019-04-29T00:59:06.459Z,48.38
2019-04-29T01:00:06.692Z,48.58
2019-04-29T01:01:06.680Z,48.38
2019-04-29T01:02:06.922Z,48.28
2019-04-29T01:03:06.694Z,48.89
2019-04-29T01:04:06.219Z,48.38
2019-04-29T01:05:07.045Z,48.69
2019-04-29T01:06:06.241Z,48.28
2019-04-29T01:07:06.206Z,48.49
2019-04-29T01:08:06.634Z,48.81
2019-04-29T01:09:07.125Z,48.38
2019-04-29T01:10:06.247Z,48.49
2019-04-29T01:11:06.125Z,48.58
2019-04-29T01:12:06.260Z,48.79
2019-04-29T01:13:06.075Z,48.38
2019-04-29T01:14:06.181Z,48.21
2019-04-29T01:15:06.789Z,48.28
2019-04-29T01:16:06.083Z,48.49
2019-04-29T01:17:06.181Z,48.38
2019-04-29T01:18:06.483Z,48.01
2019-04-29T01:19:06.375Z,48.28
2019-04-29T01:20:06.058Z,48.38
2019-04-29T01:21:06.315Z,48.51
2019-04-29T01:22:06.123Z,48.49
2019-04-29T01:23:06.107Z,48.81
2019-04-29T01:24:06.628Z,48.71
2019-04-29T01:25:06.013Z,48.38
2019-04-29T01:26:06.046Z,48.79
2019-04-29T01:27:07.639Z,48.81
2019-04-29T01:28:06.315Z,48.81
2019-04-29T01:29:06.015Z,48.38
2019-04-29T01:30:06.804Z,48.51
2019-04-29T01:31:05.920Z,48.49
2019-04-29T01:32:06.366Z,48.38
2019-04-29T01:33:06.142Z,48.49
2019-04-29T01:34:06.009Z,48.79
2019-04-29T01:35:05.848Z,48.49
2019-04-29T01:36:05.923Z,48.38
2019-04-29T01:37:05.988Z,48.28
2019-04-29T01:38:05.959Z,48.21
2019-04-29T01:39:06.691Z,48.79
2019-04-29T01:40:06.354Z,48.41
2019-04-29T01:41:05.930Z,48.81
2019-04-29T01:42:05.798Z,48.81
2019-04-29T01:43:05.918Z,48.41
2019-04-29T01:44:05.720Z,48.28
2019-04-29T01:45:06.243Z,48.81
2019-04-29T01:46:05.675Z,48.49
2019-04-29T01:47:05.758Z,48.28
2019-04-29T01:48:05.792Z,48.31
2019-04-29T01:49:05.863Z,48.31
2019-04-29T01:50:05.998Z,48.49
2019-04-29T01:51:06.370Z,48.41
2019-04-29T01:52:06.425Z,48.69
2019-04-29T01:53:05.766Z,48.38
2019-04-29T01:54:06.093Z,48.41
2019-04-29T01:55:05.717Z,48.69
2019-04-29T01:56:05.753Z,48.31
2019-04-29T01:57:06.968Z,48.71
2019-04-29T01:58:06.644Z,48.49
2019-04-29T01:59:06.765Z,48.38
2019-04-29T02:00:05.666Z,48.51
2019-04-29T02:01:05.697Z,48.51
2019-04-29T02:02:06.332Z,48.81
2019-04-29T02:03:05.837Z,48.81
2019-04-29T02:04:06.055Z,48.81
2019-04-29T02:05:05.658Z,48.61
2019-04-29T02:06:06.061Z,48.51
2019-04-29T02:07:05.630Z,48.28
2019-04-29T02:08:05.567Z,48.51
2019-04-29T02:09:05.543Z,48.81
2019-04-29T02:10:05.541Z,48.31
2019-04-29T02:11:05.461Z,48.41
2019-04-29T02:12:05.515Z,48.69
2019-04-29T02:13:07.393Z,48.38
2019-04-29T02:14:05.653Z,48.51
2019-04-29T02:15:05.791Z,48.61
2019-04-29T02:16:05.482Z,48.61
2019-04-29T02:17:05.476Z,48.71
2019-04-29T02:18:06.306Z,48.71
2019-04-29T02:19:05.387Z,48.41
2019-04-29T02:20:05.710Z,48.91
2019-04-29T02:21:05.701Z,48.28
2019-04-29T02:22:05.346Z,48.41
2019-04-29T02:23:05.282Z,48.28
2019-04-29T02:24:05.884Z,48.81
2019-04-29T02:25:05.324Z,48.41
2019-04-29T02:26:05.391Z,48.41
2019-04-29T02:27:05.874Z,48.51
2019-04-29T02:28:05.296Z,48.19
2019-04-29T02:29:05.376Z,48.71
2019-04-29T02:30:05.380Z,48.31
2019-04-29T02:31:06.198Z,48.41
2019-04-29T02:32:05.297Z,48.41
2019-04-29T02:33:06.146Z,48.31
2019-04-29T02:34:05.218Z,48.71
2019-04-29T02:35:05.196Z,48.41
2019-04-29T02:36:06.177Z,48.61
2019-04-29T02:37:05.282Z,48.71
2019-04-29T02:38:05.953Z,48.71
2019-04-29T02:39:05.864Z,48.41
2019-04-29T02:40:05.626Z,48.61
2019-04-29T02:41:05.342Z,48.71
2019-04-29T02:42:05.217Z,48.41
2019-04-29T02:43:05.139Z,48.51
2019-04-29T02:44:06.056Z,48.41
2019-04-29T02:45:05.318Z,48.71
2019-04-29T02:46:05.163Z,48.01
2019-04-29T02:47:05.167Z,48.41
2019-04-29T02:48:05.150Z,48.71
2019-04-29T02:49:05.089Z,48.41
2019-04-29T02:50:05.127Z,48.51
2019-04-29T02:51:05.177Z,48.41
2019-04-29T02:52:05.085Z,48.31
2019-04-29T02:53:05.889Z,48.51
2019-04-29T02:54:04.976Z,48.41
2019-04-29T02:55:05.014Z,48.61
2019-04-29T02:56:05.304Z,48.31
2019-04-29T02:57:05.118Z,48.71
2019-04-29T02:58:05.107Z,48.61
2019-04-29T02:59:05.051Z,48.31
2019-04-29T03:00:06.674Z,48.41
2019-04-29T03:01:05.041Z,48.31
2019-04-29T03:02:05.196Z,48.71
2019-04-29T03:03:07.582Z,48.31
2019-04-29T03:04:05.661Z,48.01
2019-04-29T03:05:04.856Z,48.71
2019-04-29T03:06:05.193Z,47.91
2019-04-29T03:07:04.945Z,48.41
2019-04-29T03:08:04.951Z,49.01
2019-04-29T03:09:06.149Z,48.41
2019-04-29T03:10:05.030Z,48.81
2019-04-29T03:11:05.671Z,48.61
2019-04-29T03:12:04.893Z,48.01
2019-04-29T03:13:05.453Z,48.41
2019-04-29T03:14:04.872Z,48.41
2019-04-29T03:15:06.746Z,48.01
2019-04-29T03:16:04.794Z,48.51
2019-04-29T03:17:04.830Z,48.71
2019-04-29T03:18:05.154Z,48.71
2019-04-29T03:19:04.789Z,48.71
2019-04-29T03:20:04.741Z,48.31
2019-04-29T03:21:06.519Z,48.41
2019-04-29T03:22:04.777Z,48.21
2019-04-29T03:23:04.652Z,48.41
2019-04-29T03:24:04.839Z,48.41
2019-04-29T03:25:04.761Z,48.41
2019-04-29T03:26:04.703Z,48.51
2019-04-29T03:27:04.920Z,48.41
2019-04-29T03:28:05.026Z,48.01
2019-04-29T03:29:04.976Z,48.61
2019-04-29T03:30:05.754Z,48.71
2019-04-29T03:31:05.499Z,48.41
2019-04-29T03:32:04.542Z,48.41
2019-04-29T03:33:04.881Z,48.71
2019-04-29T03:34:05.004Z,48.71
2019-04-29T03:35:05.395Z,48.71
2019-04-29T03:36:04.499Z,48.71
2019-04-29T03:37:04.855Z,48.71
2019-04-29T03:38:04.555Z,48.61
2019-04-29T03:39:04.830Z,48.01
2019-04-29T03:40:04.948Z,48.61
2019-04-29T03:41:04.504Z,47.81
2019-04-29T03:42:07.257Z,48.41
2019-04-29T03:43:04.527Z,48.01
2019-04-29T03:44:04.406Z,47.91
2019-04-29T03:45:04.486Z,48.01
2019-04-29T03:46:04.414Z,47.81
2019-04-29T03:47:04.442Z,47.91
2019-04-29T03:48:05.341Z,48.71
2019-04-29T03:49:04.927Z,48.21
2019-04-29T03:50:04.433Z,47.91
2019-04-29T03:51:05.632Z,47.91
2019-04-29T03:52:05.282Z,47.91
2019-04-29T03:53:04.421Z,48.01
2019-04-29T03:54:04.402Z,48.71
2019-04-29T03:55:04.530Z,48.31
2019-04-29T03:56:04.383Z,48.71
2019-04-29T03:57:04.673Z,49.01
2019-04-29T03:58:04.370Z,48.01
2019-04-29T03:59:05.199Z,48.51
2019-04-29T04:00:04.232Z,48.41
2019-04-29T04:01:05.282Z,48.71
2019-04-29T04:02:04.242Z,48.71
2019-04-29T04:03:05.176Z,48.61
2019-04-29T04:04:04.351Z,48.01
2019-04-29T04:05:04.304Z,48.41
2019-04-29T04:06:04.336Z,47.91
2019-04-29T04:07:04.357Z,48.61
2019-04-29T04:08:04.209Z,48.91
2019-04-29T04:09:06.468Z,48.61
2019-04-29T04:10:04.127Z,48.31
2019-04-29T04:11:05.839Z,48.61
2019-04-29T04:12:04.238Z,48.41
2019-04-29T04:13:04.438Z,48.58
2019-04-29T04:14:04.238Z,48.61
2019-04-29T04:15:04.930Z,48.51
2019-04-29T04:16:05.083Z,48.41
2019-04-29T04:17:04.444Z,48.41
2019-04-29T04:18:04.274Z,48.71
2019-04-29T04:19:04.105Z,47.81
2019-04-29T04:20:04.119Z,48.41
2019-04-29T04:21:04.059Z,48.01
2019-04-29T04:22:05.109Z,48.21
2019-04-29T04:23:04.104Z,48.51
2019-04-29T04:24:04.170Z,47.81
2019-04-29T04:25:04.516Z,48.61
2019-04-29T04:26:04.544Z,47.91
2019-04-29T04:27:04.204Z,48.41
2019-04-29T04:28:05.624Z,47.91
2019-04-29T04:29:04.145Z,47.81
2019-04-29T04:30:04.714Z,48.61
2019-04-29T04:31:06.793Z,48.71
2019-04-29T04:32:03.918Z,48.31
2019-04-29T04:33:04.537Z,48.51
2019-04-29T04:34:03.970Z,47.91
2019-04-29T04:35:03.968Z,47.91
2019-04-29T04:36:04.386Z,48.71
2019-04-29T04:37:03.958Z,47.91
2019-04-29T04:38:03.960Z,47.91
2019-04-29T04:39:04.287Z,47.91
2019-04-29T04:40:05.009Z,48.31
2019-04-29T04:41:03.813Z,47.91
2019-04-29T04:42:03.737Z,47.81
2019-04-29T04:43:04.276Z,47.91
2019-04-29T04:44:03.737Z,48.71
2019-04-29T04:45:04.983Z,47.99
2019-04-29T04:46:03.840Z,47.81
2019-04-29T04:47:03.737Z,47.81
2019-04-29T04:48:03.702Z,48.31
2019-04-29T04:49:03.850Z,48.91
2019-04-29T04:50:04.480Z,47.91
2019-04-29T04:51:04.699Z,48.01
2019-04-29T04:52:03.668Z,48.91
2019-04-29T04:53:03.777Z,47.81
2019-04-29T04:54:03.828Z,47.91
2019-04-29T04:55:04.609Z,48.89
2019-04-29T04:56:05.085Z,48.41
2019-04-29T04:57:03.966Z,48.21
2019-04-29T04:58:04.426Z,47.91
2019-04-29T04:59:03.729Z,48.91
2019-04-29T05:00:03.936Z,47.81
2019-04-29T05:01:03.678Z,48.41
2019-04-29T05:02:04.499Z,48.41
2019-04-29T05:03:03.929Z,48.41
2019-04-29T05:04:03.519Z,48.41
2019-04-29T05:05:03.457Z,48.41
2019-04-29T05:06:03.672Z,47.91
2019-04-29T05:07:03.839Z,47.91
2019-04-29T05:08:03.643Z,48.41
2019-04-29T05:09:03.762Z,48.41
2019-04-29T05:10:04.115Z,48.31
2019-04-29T05:11:03.625Z,48.41
2019-04-29T05:12:03.579Z,48.21
2019-04-29T05:13:04.447Z,48.71
2019-04-29T05:14:03.466Z,48.71
2019-04-29T05:15:04.489Z,48.61
2019-04-29T05:16:05.677Z,48.31
2019-04-29T05:17:03.440Z,48.41
2019-04-29T05:18:03.379Z,48.61
2019-04-29T05:19:03.421Z,48.71
2019-04-29T05:20:03.456Z,48.31
2019-04-29T05:21:03.644Z,48.41
2019-04-29T05:22:03.815Z,48.81
2019-04-29T05:23:03.434Z,48.71
2019-04-29T05:24:03.378Z,48.41
2019-04-29T05:25:03.640Z,48.61
2019-04-29T05:26:03.385Z,48.71
2019-04-29T05:27:04.309Z,48.71
2019-04-29T05:28:03.525Z,48.01
2019-04-29T05:29:03.739Z,48.41
2019-04-29T05:30:03.368Z,48.71
2019-04-29T05:31:03.378Z,48.31
2019-04-29T05:32:03.424Z,48.71
2019-04-29T05:33:04.717Z,48.31
2019-04-29T05:34:03.316Z,48.71
2019-04-29T05:35:03.912Z,48.81
2019-04-29T05:36:03.864Z,48.31
2019-04-29T05:37:04.287Z,48.81
2019-04-29T05:38:03.096Z,48.51
2019-04-29T05:39:08.138Z,48.41
2019-04-29T05:40:03.684Z,48.81
2019-04-29T05:41:03.658Z,48.51
2019-04-29T05:42:16.104Z,48.41
2019-04-29T05:43:05.150Z,48.31
2019-04-29T05:44:03.566Z,48.58
2019-04-29T05:45:03.431Z,48.81
2019-04-29T05:46:07.163Z,48.41
2019-04-29T05:47:07.927Z,48.71
2019-04-29T05:48:04.575Z,48.81
2019-04-29T05:49:07.152Z,48.41
2019-04-29T05:50:06.504Z,48.81
2019-04-29T05:51:04.001Z,48.71
2019-04-29T05:52:03.269Z,48.79
2019-04-29T05:53:03.907Z,48.71
2019-04-29T05:54:02.941Z,48.61
2019-04-29T05:55:03.305Z,48.41
2019-04-29T05:56:08.323Z,48.41
2019-04-29T05:57:03.050Z,48.41
2019-04-29T05:58:03.976Z,48.51
2019-04-29T05:59:12.892Z,48.71
2019-04-29T06:00:04.099Z,48.71
2019-04-29T06:01:04.023Z,48.71
2019-04-29T06:02:06.864Z,48.51
2019-04-29T06:03:03.842Z,48.69
2019-04-29T06:04:03.026Z,48.51
2019-04-29T06:05:03.059Z,48.71
2019-04-29T06:06:02.917Z,48.91
2019-04-29T06:07:02.956Z,49.01
2019-04-29T06:08:03.824Z,48.99
2019-04-29T06:09:02.943Z,48.51
2019-04-29T06:10:03.472Z,48.58
2019-04-29T06:11:02.866Z,48.58
2019-04-29T06:12:03.446Z,48.31
2019-04-29T06:13:02.808Z,48.31
2019-04-29T06:14:04.151Z,48.41
2019-04-29T06:15:02.714Z,48.49
2019-04-29T06:16:04.693Z,48.58
2019-04-29T06:17:07.522Z,48.69
2019-04-29T06:18:17.728Z,48.58
2019-04-29T06:19:05.886Z,48.28
2019-04-29T06:20:04.143Z,48.58
2019-04-29T06:21:09.235Z,48.38
2019-04-29T06:22:04.059Z,48.58
2019-04-29T06:23:03.480Z,48.49
2019-04-29T06:24:04.421Z,48.58
2019-04-29T06:25:02.889Z,48.28
2019-04-29T06:26:03.717Z,48.38
2019-04-29T06:27:04.003Z,48.79
2019-04-29T06:28:03.108Z,48.79
2019-04-29T06:29:05.822Z,48.38
2019-04-29T06:30:04.641Z,48.69
2019-04-29T06:31:02.597Z,48.41
2019-04-29T06:32:02.829Z,48.28
2019-04-29T06:33:02.548Z,48.49
2019-04-29T06:34:05.270Z,48.49
2019-04-29T06:35:02.601Z,48.79
2019-04-29T06:36:02.539Z,48.49
2019-04-29T06:37:03.198Z,48.69
2019-04-29T06:38:02.758Z,48.49
2019-04-29T06:39:02.654Z,48.89
2019-04-29T06:40:02.501Z,48.38
2019-04-29T06:41:05.511Z,48.81
2019-04-29T06:42:03.547Z,48.58
2019-04-29T06:43:03.164Z,48.79
2019-04-29T06:44:06.699Z,48.79
2019-04-29T06:45:03.534Z,48.79
2019-04-29T06:46:02.412Z,48.69
2019-04-29T06:47:03.288Z,48.79
2019-04-29T06:48:03.190Z,48.99
2019-04-29T06:49:10.193Z,48.89
2019-04-29T06:50:07.604Z,49.08
2019-04-29T06:51:02.393Z,49.08
2019-04-29T06:52:02.242Z,49.29
2019-04-29T06:53:04.355Z,49.08
2019-04-29T06:54:03.162Z,49.29
2019-04-29T06:55:03.239Z,48.58
2019-04-29T06:56:04.097Z,49.29
2019-04-29T06:57:02.893Z,49.29
2019-04-29T06:58:05.075Z,49.29
2019-04-29T06:59:02.355Z,49.19
2019-04-29T07:00:02.427Z,48.89
2019-04-29T07:01:03.489Z,49.29
2019-04-29T07:02:04.687Z,49.58
2019-04-29T07:03:03.417Z,49.49
2019-04-29T07:04:02.308Z,49.41
2019-04-29T07:05:02.297Z,49.29
2019-04-29T07:06:02.647Z,49.39
2019-04-29T07:08:18.539Z,49.39
2019-04-29T07:10:32.892Z,49.69
2019-04-29T07:11:36.522Z,49.79
2019-04-29T07:12:32.652Z,49.08
2019-04-29T07:16:21.912Z,50.09
2019-04-29T07:23:59.434Z,49.89
2019-04-29T07:26:50.207Z,49.99
2019-04-29T07:27:43.140Z,49.99
2019-04-29T07:28:37.682Z,50.09
2019-04-29T07:29:43.221Z,49.89
2019-04-29T07:30:39.235Z,50.09
2019-04-29T07:31:41.750Z,49.49
2019-04-29T07:32:36.747Z,49.89
2019-04-29T07:34:57.184Z,49.99
2019-04-29T07:36:09.950Z,49.79
2019-04-29T07:36:58.019Z,49.99
2019-04-29T07:37:56.432Z,50.19
2019-04-29T07:38:56.743Z,50.19
2019-04-29T07:39:56.899Z,50.09
2019-04-29T07:40:56.197Z,50.39
2019-04-29T07:41:57.541Z,49.89
2019-04-29T07:50:34.102Z,51.87
2019-04-29T07:51:12.423Z,51.67
2019-04-29T09:40:16.278Z,49.29
2019-04-29T09:46:48.260Z,49.26
2019-04-29T09:47:35.448Z,50.16
2019-04-29T09:48:35.626Z,49.66
2019-04-29T09:53:41.558Z,49.66
2019-04-29T09:54:41.279Z,49.66
2019-04-29T09:55:41.390Z,49.46
2019-04-29T09:56:43.362Z,49.66
2019-04-29T09:57:41.267Z,49.26
2019-04-29T09:58:42.633Z,49.57
2019-04-29T09:59:41.242Z,49.76
2019-04-29T10:00:42.082Z,49.46
2019-04-29T10:01:41.343Z,49.57
2019-04-29T10:02:41.253Z,49.87
2019-04-29T10:03:41.441Z,49.76
2019-04-29T10:04:55.541Z,49.87
2019-04-29T10:05:42.878Z,49.87
2019-04-29T10:06:41.195Z,50.07
2019-04-29T10:07:41.298Z,50.16
2019-04-29T10:08:41.077Z,50.26
2019-04-29T10:09:41.289Z,50.16
2019-04-29T10:10:41.220Z,50.07
2019-04-29T10:11:41.735Z,50.16
2019-04-29T10:12:41.326Z,50.57
2019-04-29T10:13:41.628Z,50.37
2019-04-29T10:14:41.033Z,50.46
2019-04-29T10:15:41.142Z,50.37
2019-04-29T10:16:40.957Z,50.16
2019-04-29T10:17:41.222Z,50.26
2019-04-29T10:18:40.957Z,49.96
2019-04-29T10:19:41.022Z,50.07
2019-04-29T10:20:40.921Z,49.76
2019-04-29T10:21:41.013Z,49.96
2019-04-29T10:22:41.219Z,50.07
2019-04-29T10:23:40.935Z,49.76
2019-04-29T10:24:41.481Z,49.96
2019-04-29T10:25:40.868Z,50.46
2019-04-29T10:26:41.433Z,49.76
2019-04-29T10:27:40.864Z,50.57
2019-04-29T10:28:40.847Z,49.37
2019-04-29T10:29:40.935Z,50.16
2019-04-29T10:30:40.932Z,50.76
2019-04-29T10:31:40.910Z,50.87
2019-04-29T10:32:42.492Z,50.67
2019-04-29T10:33:41.538Z,49.96
2019-04-29T10:34:43.161Z,49.76
2019-04-29T10:35:45.019Z,49.96
2019-04-29T10:36:42.437Z,50.67
2019-04-29T10:37:42.077Z,50.96
2019-04-29T10:38:44.968Z,51.46
2019-04-29T10:39:42.605Z,51.57
2019-04-29T10:40:40.924Z,51.07
2019-04-29T10:41:41.779Z,51.27
2019-04-29T10:42:40.884Z,51.37
2019-04-29T10:43:40.881Z,50.37
2019-04-29T10:44:40.957Z,51.87
2019-04-29T10:45:40.686Z,50.37
2019-04-29T10:46:40.993Z,50.76
2019-04-29T10:47:40.986Z,50.46
2019-04-29T10:48:40.831Z,50.76
2019-04-29T10:49:40.895Z,49.87
2019-04-29T10:50:40.637Z,50.46
2019-04-29T10:51:41.001Z,50.16
2019-04-29T10:52:43.521Z,49.87
2019-04-29T10:53:40.798Z,50.16
2019-04-29T10:54:40.729Z,50.07
2019-04-29T10:55:41.069Z,50.26
2019-04-29T10:56:41.118Z,50.26
2019-04-29T10:57:44.942Z,50.07
2019-04-29T10:58:42.388Z,50.26
2019-04-29T10:59:44.879Z,50.57
2019-04-29T11:00:41.476Z,50.16
2019-04-29T11:01:40.551Z,50.37
2019-04-29T11:02:40.684Z,50.07
2019-04-29T11:03:40.503Z,50.07
2019-04-29T11:04:40.448Z,50.07
2019-04-29T11:05:44.608Z,50.07
2019-04-29T11:06:43.955Z,49.96
2019-04-29T11:07:40.692Z,49.87
2019-04-29T11:08:43.114Z,50.07
2019-04-29T11:09:40.381Z,49.96
2019-04-29T11:10:40.707Z,50.07
2019-04-29T11:11:40.367Z,49.96
2019-04-29T11:12:40.399Z,49.87
2019-04-29T11:13:48.024Z,49.96
2019-04-29T11:14:41.719Z,49.87
2019-04-29T11:15:40.391Z,49.07
2019-04-29T11:16:46.542Z,49.96
2019-04-29T11:17:44.661Z,49.87
2019-04-29T11:18:40.478Z,50.07
2019-04-29T11:19:41.662Z,49.66
2019-04-29T11:20:40.319Z,49.07
2019-04-29T11:21:40.326Z,48.96
2019-04-29T11:22:40.501Z,50.26
2019-04-29T11:23:40.217Z,49.87
2019-04-29T11:24:40.332Z,50.16
2019-04-29T11:25:42.507Z,50.16
2019-04-29T11:26:44.608Z,49.96
2019-04-29T11:27:40.309Z,50.46
2019-04-29T11:28:40.313Z,50.37
2019-04-29T11:29:40.411Z,49.87
2019-04-29T11:30:40.716Z,50.26
2019-04-29T11:31:40.140Z,50.26
2019-04-29T11:32:40.134Z,50.07
2019-04-29T11:33:41.733Z,50.07
2019-04-29T11:34:40.982Z,49.46
2019-04-29T11:35:40.308Z,49.96
2019-04-29T11:36:43.968Z,50.16
2019-04-29T11:37:41.539Z,49.96
2019-04-29T11:38:40.285Z,50.07
2019-04-29T11:39:40.129Z,49.37
2019-04-29T11:40:43.707Z,50.37
2019-04-29T11:41:40.145Z,49.96
2019-04-29T11:42:41.749Z,50.16
2019-04-29T11:43:41.469Z,50.46
2019-04-29T11:44:40.844Z,50.96
2019-04-29T11:45:41.204Z,51.17
2019-04-29T11:46:44.602Z,50.96
2019-04-29T11:47:41.058Z,50.37
2019-04-29T11:48:41.134Z,49.96
2019-04-29T11:49:40.049Z,50.16
2019-04-29T11:50:40.146Z,50.07
2019-04-29T11:52:04.831Z,50.26
2019-04-29T11:52:41.404Z,50.37
2019-04-29T11:53:41.216Z,50.07
2019-04-29T11:54:40.202Z,50.16
2019-04-29T11:55:43.473Z,50.26
2019-04-29T11:56:41.069Z,50.16
2019-04-29T11:57:41.425Z,50.07
2019-04-29T11:58:40.231Z,50.16
2019-04-29T11:59:41.025Z,49.76
2019-04-29T12:00:41.015Z,49.96
2019-04-29T12:01:46.729Z,49.76
2019-04-29T12:02:45.655Z,50.16
2019-04-29T12:03:40.544Z,49.87
2019-04-29T12:04:42.104Z,49.37
2019-04-29T12:05:44.941Z,49.87
2019-04-29T12:06:41.048Z,49.87
2019-04-29T12:07:39.899Z,50.46
2019-04-29T12:09:56.720Z,50.57
2019-04-29T12:11:06.735Z,50.16
2019-04-29T12:11:56.178Z,50.67
2019-04-29T12:12:56.180Z,50.26
2019-04-29T12:13:58.839Z,49.76
2019-04-29T12:14:56.361Z,49.96
2019-04-29T12:15:55.404Z,50.07
2019-04-29T12:16:55.249Z,49.87
2019-04-29T12:17:55.194Z,49.87
2019-04-29T12:18:56.846Z,50.76
2019-04-29T12:19:55.149Z,49.96
2019-04-29T12:20:57.067Z,50.76
2019-04-29T12:21:59.523Z,51.46
2019-04-29T12:22:55.219Z,51.07
2019-04-29T12:23:55.015Z,51.46
2019-04-29T12:24:55.590Z,50.46
2019-04-29T12:25:58.653Z,51.17
2019-04-29T12:26:56.899Z,51.07
2019-04-29T12:28:01.783Z,50.96
2019-04-29T12:28:56.069Z,50.96
2019-04-29T12:29:59.165Z,51.07
2019-04-29T12:30:55.221Z,51.17
2019-04-29T12:31:55.434Z,51.07
2019-04-29T12:32:56.918Z,50.96
2019-04-29T12:33:58.725Z,51.37
2019-04-29T12:34:55.437Z,50.96
2019-04-29T12:35:58.575Z,50.67
2019-04-29T12:36:56.876Z,50.96
2019-04-29T12:37:55.092Z,51.27
2019-04-29T12:38:55.323Z,51.27
2019-04-29T12:39:54.760Z,51.37
2019-04-29T12:40:55.318Z,50.87
2019-04-29T12:41:55.462Z,50.96
2019-04-29T12:42:55.338Z,51.37
2019-04-29T12:43:59.150Z,51.49
2019-04-29T12:44:54.865Z,51.07
2019-04-29T12:45:54.966Z,50.57
2019-04-29T12:46:55.218Z,50.76
2019-04-29T12:47:54.798Z,50.26
2019-04-29T12:48:54.811Z,50.96
2019-04-29T12:49:54.965Z,50.96
2019-04-29T12:50:57.433Z,51.07
2019-04-29T12:51:55.638Z,50.07
2019-04-29T12:52:55.381Z,51.07
2019-04-29T12:53:55.563Z,50.96
2019-04-29T12:54:54.571Z,50.37
2019-04-29T12:55:54.861Z,50.96
2019-04-29T12:56:55.587Z,50.57
2019-04-29T12:57:55.396Z,50.57
2019-04-29T12:58:59.265Z,51.37
2019-04-29T12:59:55.052Z,50.99
2019-04-29T13:01:00.169Z,50.96
2019-04-29T13:01:58.599Z,50.96
2019-04-29T13:02:55.504Z,50.96
2019-04-29T13:03:56.053Z,51.37
2019-04-29T13:04:54.457Z,50.96
2019-04-29T13:05:58.385Z,50.87
2019-04-29T13:06:55.598Z,51.37
2019-04-29T13:07:55.712Z,51.67
2019-04-29T13:08:54.705Z,50.46
2019-04-29T13:09:54.692Z,51.07
2019-04-29T13:10:54.571Z,51.49
2019-04-29T13:12:10.971Z,52.07
2019-04-29T13:12:58.041Z,50.87
2019-04-29T13:14:01.976Z,51.27
2019-04-29T13:15:02.595Z,50.96
2019-04-29T13:15:55.488Z,52.07
2019-04-29T13:16:55.778Z,51.77
2019-04-29T13:18:03.202Z,50.76
2019-04-29T13:18:55.711Z,52.37
2019-04-29T13:20:01.487Z,52.07
2019-04-29T13:21:09.186Z,51.57
2019-04-29T13:21:55.774Z,51.37
2019-04-29T13:23:01.003Z,51.37
2019-04-29T13:24:12.614Z,51.27
2019-04-29T13:24:55.246Z,51.37
2019-04-29T13:25:56.011Z,51.87
2019-04-29T13:26:54.373Z,51.97
2019-04-29T13:27:56.046Z,52.17
2019-04-29T13:29:00.747Z,51.46
2019-04-29T13:29:55.308Z,51.07
2019-04-29T13:30:56.743Z,52.07
2019-04-29T13:31:54.331Z,51.27
2019-04-29T13:32:54.377Z,51.67
2019-04-29T13:33:54.697Z,51.07
2019-04-29T13:34:54.928Z,51.37
2019-04-29T13:35:54.189Z,51.87
2019-04-29T13:37:06.581Z,52.27
2019-04-29T13:37:55.324Z,51.97
2019-04-29T13:38:54.357Z,51.97
2019-04-29T13:39:55.508Z,51.97
2019-04-29T13:41:11.810Z,51.07
2019-04-29T13:41:58.017Z,51.17
2019-04-29T13:42:54.039Z,51.97
2019-04-29T13:43:54.301Z,51.97
2019-04-29T13:45:09.387Z,52.17
2019-04-29T13:49:16.404Z,52.27
2019-04-29T13:50:20.444Z,52.57
2019-04-29T13:51:33.896Z,52.77
2019-04-29T13:52:16.228Z,52.27
2019-04-29T13:53:18.365Z,52.67
2019-04-29T13:54:15.240Z,52.37
2019-04-29T13:55:17.969Z,52.97
2019-04-29T13:56:32.812Z,52.24
2019-04-29T13:57:16.373Z,52.57
2019-04-29T13:58:15.032Z,52.97
2019-04-29T13:59:16.023Z,52.77
2019-04-29T14:00:15.890Z,52.97
2019-04-29T14:01:22.597Z,52.87
2019-04-29T14:02:16.376Z,52.57
2019-04-29T14:03:16.863Z,52.77
2019-04-29T14:04:15.034Z,52.84
2019-04-29T14:05:14.978Z,53.07
2019-04-29T14:06:18.691Z,53.27
2019-04-29T14:07:18.313Z,53.67
2019-04-29T14:08:15.181Z,53.44
2019-04-29T14:09:15.847Z,53.14
2019-04-29T14:10:16.661Z,52.24
2019-04-29T14:11:15.200Z,52.87
2019-04-29T14:12:47.015Z,52.97
2019-04-29T14:13:18.934Z,52.87
2019-04-29T14:14:17.947Z,52.97
2019-04-29T14:15:16.199Z,52.97
2019-04-29T14:16:14.891Z,52.97
2019-04-29T14:17:25.837Z,52.77
2019-04-29T14:18:15.700Z,52.37
2019-04-29T14:19:20.552Z,52.64
2019-04-29T14:20:17.423Z,52.47
2019-04-29T14:21:14.716Z,52.44
2019-04-29T14:22:22.441Z,52.34
2019-04-29T14:23:16.543Z,51.87
2019-04-29T14:24:15.529Z,52.27
2019-04-29T14:25:15.667Z,51.94
2019-04-29T14:26:14.809Z,52.27
2019-04-29T14:27:24.699Z,51.97
2019-04-29T14:28:16.250Z,52.37
2019-04-29T14:29:15.504Z,52.37
2019-04-29T14:30:14.587Z,51.97
2019-04-29T14:31:18.767Z,52.27
2019-04-29T14:32:18.334Z,51.67
2019-04-29T14:33:19.112Z,53.07
2019-04-29T14:34:18.537Z,52.27
2019-04-29T14:35:16.322Z,52.07
2019-04-29T14:36:14.903Z,51.46
2019-04-29T14:37:23.271Z,51.97
2019-04-29T14:38:15.474Z,51.07
2019-04-29T14:39:18.961Z,51.46
2019-04-29T14:40:16.079Z,51.97
2019-04-29T14:41:19.300Z,52.37
2019-04-29T14:42:15.072Z,51.07
2019-04-29T14:43:27.089Z,51.04
2019-04-29T14:44:15.690Z,51.77
2019-04-29T14:45:15.326Z,51.17
2019-04-29T14:46:16.112Z,52.14
2019-04-29T14:47:15.651Z,52.67
2019-04-29T14:48:14.487Z,53.64
2019-04-29T14:49:15.331Z,54.05
2019-04-29T14:50:18.113Z,54.85
2019-04-29T14:51:15.482Z,55.67
2019-04-29T14:52:15.005Z,55.15
2019-04-29T14:53:14.528Z,55.05
2019-04-29T14:54:14.302Z,54.74
2019-04-29T14:55:15.315Z,54.14
2019-04-29T14:56:15.922Z,53.85
2019-04-29T14:57:14.565Z,53.85
2019-04-29T14:58:14.787Z,54.85
2019-04-29T14:59:14.700Z,55.05
2019-04-29T15:00:14.986Z,55.55
2019-04-29T15:01:16.492Z,55.05
2019-04-29T15:02:17.056Z,54.85
2019-04-29T15:03:15.400Z,54.55
2019-04-29T15:04:18.617Z,54.44
2019-04-29T15:05:15.280Z,54.64
2019-04-29T15:06:15.180Z,54.35
2019-04-29T15:07:14.859Z,54.14
2019-04-29T15:08:14.768Z,53.94
2019-04-29T15:09:17.832Z,54.14
2019-04-29T15:10:16.004Z,54.14
2019-04-29T15:11:14.335Z,54.14
2019-04-29T15:12:17.267Z,54.24
2019-04-29T15:13:20.954Z,53.94
2019-04-29T15:14:22.930Z,54.24
2019-04-29T15:15:15.869Z,54.05
2019-04-29T15:16:15.595Z,54.14